Time;durP1;ratioP1;P1;durP2;ratioP2;P2;SDS_P1;SDS_P2;PMS_P1;PMS_P2;Temp;Humidity;BMP_temperature;BMP_pressure;BME280_temperature;BME280_humidity;BME280_pressure;Samples;Min_cycle;Max_cycle;Signal;HPM_P1;HPM_P2
2021/10/12 05:45:50;;;;;;;27.65;7.20;;;8.50;99.90;;;;;;6144444;23;20457;-83
2021/10/12 05:48:18;;;;;;;30.15;7.45;;;8.50;99.90;;;;;;6210721;23;20029;-83
2021/10/12 05:50:47;;;;;;;26.38;6.43;;;8.50;99.90;;;;;;6210369;23;20017;-83
2021/10/12 05:53:24;;;;;;;;;;;8.50;99.90;;;;;;6210598;23;20017;-83
2021/10/12 06:01:10;;;;;;;20.42;5.15;;;8.50;99.90;;;;;;6134341;22;20075;-84
2021/10/12 06:03:38;;;;;;;18.87;4.33;;;8.50;99.90;;;;;;6213915;23;20359;-85
2021/10/12 06:06:05;;;;;;;19.73;5.15;;;8.50;99.90;;;;;;6212868;23;20322;-83
2021/10/12 06:08:33;;;;;;;14.68;4.47;;;8.60;99.90;;;;;;6185441;23;20017;-83
2021/10/12 06:11:02;;;;;;;23.30;4.82;;;8.60;99.90;;;;;;6213351;23;20024;-88
2021/10/12 06:13:30;;;;;;;20.75;5.22;;;8.60;99.90;;;;;;6187139;23;20884;-82
2021/10/12 06:15:57;;;;;;;25.58;5.57;;;8.60;99.90;;;;;;6213221;23;20497;-83
2021/10/12 06:18:26;;;;;;;30.90;5.65;;;8.70;99.90;;;;;;6212196;23;20048;-84
2021/10/12 06:20:53;;;;;;;17.85;5.85;;;8.70;99.90;;;;;;6212741;23;20020;-84
2021/10/12 06:23:21;;;;;;;20.00;5.63;;;8.70;99.90;;;;;;6211419;23;20025;-84
2021/10/12 06:25:48;;;;;;;28.13;6.00;;;8.70;99.90;;;;;;6212489;23;20021;-84
2021/10/12 06:28:16;;;;;;;23.50;6.28;;;8.80;99.90;;;;;;6212077;23;20024;-83
2021/10/12 06:30:44;;;;;;;14.57;4.70;;;8.80;99.90;;;;;;6213224;23;20025;-82
2021/10/12 06:33:12;;;;;;;27.10;6.38;;;8.90;99.90;;;;;;6211684;23;20068;-83
2021/10/12 06:35:39;;;;;;;24.15;7.10;;;8.90;99.90;;;;;;6211945;23;20027;-82
2021/10/12 06:38:07;;;;;;;27.98;6.78;;;8.90;99.90;;;;;;6211049;23;20012;-82
2021/10/12 06:40:35;;;;;;;29.08;6.90;;;8.90;99.90;;;;;;6211301;23;20051;-82
2021/10/12 06:43:02;;;;;;;23.90;6.82;;;8.90;99.90;;;;;;6212572;23;20070;-84
2021/10/12 06:45:30;;;;;;;30.02;7.57;;;8.90;99.90;;;;;;6211858;23;20017;-84
2021/10/12 06:47:56;;;;;;;23.65;7.10;;;8.90;99.90;;;;;;6211050;23;20544;-83
2021/10/12 06:50:24;;;;;;;21.48;8.43;;;9.00;99.90;;;;;;6211596;23;20024;-83
2021/10/12 06:52:51;;;;;;;25.90;10.07;;;9.00;99.90;;;;;;6211622;23;20020;-83
2021/10/12 06:55:19;;;;;;;28.00;9.88;;;9.00;99.90;;;;;;6211302;23;20024;-83
2021/10/12 06:57:46;;;;;;;25.63;9.52;;;9.00;99.90;;;;;;6212424;23;20087;-83
2021/10/12 07:00:15;;;;;;;30.33;10.07;;;9.00;99.90;;;;;;6211581;23;20016;-82
2021/10/12 07:02:43;;;;;;;35.45;8.57;;;9.00;99.90;;;;;;6212267;23;20390;-84
2021/10/12 07:05:11;;;;;;;17.65;6.57;;;9.00;99.90;;;;;;6211460;23;20024;-83
2021/10/12 07:07:39;;;;;;;13.10;5.70;;;9.00;99.90;;;;;;6185501;23;20043;-83
2021/10/12 07:10:08;;;;;;;22.60;6.65;;;9.00;99.90;;;;;;6185099;23;20021;-82
2021/10/12 07:12:34;;;;;;;;;;;9.10;99.90;;;;;;6185963;23;20016;-83
2021/10/12 07:15:03;;;;;;;22.65;7.00;;;9.10;99.90;;;;;;6211998;23;19916;-82
2021/10/12 07:17:30;;;;;;;14.13;5.75;;;9.20;99.90;;;;;;6211249;23;20024;-82
2021/10/12 07:19:57;;;;;;;22.25;6.50;;;9.30;99.90;;;;;;6211932;23;20017;-83
2021/10/12 07:22:24;;;;;;;21.48;7.13;;;9.30;99.90;;;;;;6210962;23;24812;-83
2021/10/12 07:24:52;;;;;;;24.67;7.18;;;9.40;99.90;;;;;;6211683;23;20317;-84
2021/10/12 07:27:19;;;;;;;21.73;6.63;;;9.50;99.90;;;;;;6210685;23;20025;-83
2021/10/12 07:29:47;;;;;;;17.85;5.88;;;9.60;99.90;;;;;;6211890;23;20017;-83
2021/10/12 07:32:14;;;;;;;32.55;7.85;;;9.60;99.90;;;;;;6210371;23;20021;-83
2021/10/12 07:34:41;;;;;;;28.67;6.57;;;9.70;99.90;;;;;;6210803;23;20478;-83
2021/10/12 07:37:09;;;;;;;19.67;6.85;;;9.80;99.90;;;;;;6209387;23;20375;-82
2021/10/12 07:39:36;;;;;;;24.88;6.90;;;9.90;99.90;;;;;;6210737;23;20343;-83
2021/10/12 07:42:06;;;;;;;28.98;6.43;;;9.90;99.90;;;;;;6210428;23;20016;-83
2021/10/12 07:44:33;;;;;;;24.73;6.82;;;10.00;99.90;;;;;;6210323;23;20425;-82
2021/10/12 07:46:59;;;;;;;15.52;5.05;;;10.10;99.90;;;;;;6211183;23;20020;-83
2021/10/12 07:49:26;;;;;;;22.40;5.57;;;10.20;99.90;;;;;;6210848;23;20016;-82
2021/10/12 07:51:53;;;;;;;20.58;6.35;;;10.20;99.90;;;;;;6210558;23;20402;-82
2021/10/12 07:54:27;;;;;;;22.70;6.40;;;10.30;99.90;;;;;;6210634;23;20021;-83
2021/10/12 07:56:53;;;;;;;21.35;6.35;;;10.40;99.90;;;;;;6211243;23;20025;-82
2021/10/12 07:59:22;;;;;;;16.58;5.40;;;10.50;99.90;;;;;;6211208;23;20024;-83
2021/10/12 08:01:49;;;;;;;17.20;4.75;;;10.50;99.90;;;;;;6211420;23;20020;-82
2021/10/12 08:04:17;;;;;;;18.25;5.78;;;10.60;99.90;;;;;;6210765;23;20020;-83
2021/10/12 08:06:44;;;;;;;18.52;4.93;;;10.70;99.90;;;;;;6209667;23;20020;-83
2021/10/12 08:09:10;;;;;;;19.15;5.25;;;10.80;99.90;;;;;;6210868;23;20020;-83
2021/10/12 08:11:37;;;;;;;13.13;4.30;;;10.90;99.90;;;;;;6211381;23;20017;-83
2021/10/12 08:14:06;;;;;;;14.93;5.18;;;10.90;99.90;;;;;;6211610;23;20020;-81
2021/10/12 08:16:35;;;;;;;18.98;4.50;;;11.00;99.90;;;;;;6211521;23;20012;-83
2021/10/12 08:19:05;;;;;;;14.60;4.90;;;11.10;99.90;;;;;;6211358;23;20020;-82
2021/10/12 08:21:32;;;;;;;15.13;5.20;;;11.20;99.90;;;;;;6210704;23;20016;-83
2021/10/12 08:24:01;;;;;;;15.98;4.68;;;11.30;99.90;;;;;;6211481;23;20491;-84
2021/10/12 08:26:28;;;;;;;14.77;5.05;;;11.40;99.90;;;;;;6211019;23;20351;-84
2021/10/12 08:28:55;;;;;;;13.65;4.53;;;11.40;99.90;;;;;;6211397;23;20024;-84
2021/10/12 08:31:22;;;;;;;15.20;4.78;;;11.60;99.90;;;;;;6209101;23;20025;-84
2021/10/12 08:33:50;;;;;;;17.38;4.93;;;11.60;99.90;;;;;;6211422;23;20016;-85
2021/10/12 08:36:17;;;;;;;14.52;4.30;;;11.70;99.90;;;;;;6210383;23;20036;-84
2021/10/12 08:39:01;;;;;;;11.85;4.80;;;11.80;99.90;;;;;;6188451;23;20020;-82
2021/10/12 08:41:30;;;;;;;15.23;5.32;;;11.90;99.90;;;;;;6210578;23;20020;-84
2021/10/12 08:43:58;;;;;;;18.13;5.00;;;12.00;99.90;;;;;;6211386;23;20497;-84
2021/10/12 08:46:26;;;;;;;14.57;4.85;;;12.10;99.90;;;;;;6210767;23;20029;-85
2021/10/12 08:48:58;;;;;;;13.27;4.70;;;12.10;99.90;;;;;;6210949;23;20028;-85
2021/10/12 08:51:26;;;;;;;14.00;4.22;;;12.20;99.90;;;;;;6210324;23;20020;-83
2021/10/12 08:53:54;;;;;;;20.65;4.57;;;12.30;99.90;;;;;;6211299;23;20383;-84
2021/10/12 08:56:21;;;;;;;13.50;4.32;;;12.40;99.90;;;;;;6210757;23;20017;-83
2021/10/12 08:58:48;;;;;;;12.35;4.00;;;12.50;99.90;;;;;;6211193;23;20420;-82
2021/10/12 09:01:17;;;;;;;12.98;4.18;;;12.60;99.90;;;;;;6209977;23;20031;-84
2021/10/12 09:06:30;;;;;;;;;;;12.70;99.90;;;;;;6213424;23;20017;-84
2021/10/12 09:09:16;;;;;;;20.67;3.97;;;12.80;99.90;;;;;;6213018;23;19916;-86
2021/10/12 09:11:44;;;;;;;12.48;3.58;;;12.90;99.90;;;;;;6212625;23;20021;-85
2021/10/12 09:14:12;;;;;;;12.93;3.50;;;13.00;99.90;;;;;;6213719;23;20015;-85
2021/10/12 09:16:42;;;;;;;8.90;2.63;;;13.10;99.90;;;;;;6215060;23;20481;-84
2021/10/12 09:19:19;;;;;;;8.80;2.80;;;13.20;99.90;;;;;;6212945;23;20287;-85
2021/10/12 09:21:48;;;;;;;16.30;2.92;;;13.30;99.90;;;;;;6219289;23;20020;-84
2021/10/12 09:24:18;;;;;;;15.40;3.80;;;13.40;99.90;;;;;;6219465;23;20017;-85
2021/10/12 09:27:04;;;;;;;13.45;3.65;;;13.50;99.90;;;;;;6193190;23;20494;-85
2021/10/12 09:29:41;;;;;;;14.35;3.70;;;13.60;99.90;;;;;;6218160;23;20044;-86
2021/10/12 09:32:09;;;;;;;13.38;2.90;;;13.70;99.90;;;;;;6215845;23;20548;-85
2021/10/12 09:34:37;;;;;;;10.52;2.50;;;13.80;99.90;;;;;;6188023;23;20016;-86
2021/10/12 09:37:06;;;;;;;8.25;2.42;;;13.90;99.90;;;;;;6186259;23;20016;-86
2021/10/12 09:39:45;;;;;;;10.45;3.28;;;14.00;99.90;;;;;;6186354;23;20439;-86
2021/10/12 09:42:15;;;;;;;8.63;3.13;;;14.10;99.90;;;;;;6212946;23;20017;-86
2021/10/12 09:44:53;;;;;;;11.93;3.22;;;14.20;99.90;;;;;;6214049;23;20020;-88
2021/10/12 09:47:21;;;;;;;9.57;2.13;;;14.30;99.90;;;;;;6212796;23;20410;-86
2021/10/12 09:49:50;;;;;;;10.07;2.55;;;14.40;99.90;;;;;;6213605;23;20736;-85
2021/10/12 09:52:20;;;;;;;10.10;2.40;;;14.50;99.90;;;;;;6211638;23;20023;-86
2021/10/12 09:54:56;;;;;;;10.25;2.50;;;14.50;99.90;;;;;;6213574;23;20338;-85
2021/10/12 09:57:27;;;;;;;10.38;2.50;;;14.60;99.90;;;;;;6211910;23;20071;-86
2021/10/12 09:59:54;;;;;;;9.70;1.98;;;14.70;99.90;;;;;;6214104;23;20078;-87
2021/10/12 10:02:23;;;;;;;6.13;2.05;;;14.80;99.90;;;;;;6213052;23;20036;-87
2021/10/12 10:04:52;;;;;;;8.95;2.10;;;14.80;99.90;;;;;;6213993;23;20517;-86
2021/10/12 10:07:22;;;;;;;9.88;2.30;;;14.90;99.90;;;;;;6212105;23;20552;-86
2021/10/12 10:09:51;;;;;;;11.32;2.53;;;15.00;99.90;;;;;;6187657;23;20071;-88
2021/10/12 10:12:20;;;;;;;7.68;2.05;;;14.90;99.90;;;;;;6212851;23;20021;-86
2021/10/12 10:14:46;;;;;;;11.45;2.42;;;15.00;99.90;;;;;;6187613;23;20075;-87
2021/10/12 10:17:14;;;;;;;9.15;2.33;;;15.00;99.90;;;;;;6212984;23;20201;-88
2021/10/12 10:19:43;;;;;;;8.77;2.40;;;15.20;99.90;;;;;;6213907;23;20020;-87
2021/10/12 10:22:40;;;;;;;10.02;1.90;;;15.30;99.90;;;;;;6213106;23;20016;-87
2021/10/12 10:25:22;;;;;;;9.40;2.17;;;15.40;99.90;;;;;;6212910;23;20013;-87
2021/10/12 10:27:49;;;;;;;9.60;2.50;;;15.40;99.90;;;;;;6212117;23;20391;-87
2021/10/12 10:30:19;;;;;;;12.70;2.65;;;15.50;99.90;;;;;;6186159;23;20048;-87
2021/10/12 10:33:02;;;;;;;10.05;1.92;;;15.50;99.90;;;;;;6212502;23;20021;-87
2021/10/12 10:35:33;;;;;;;9.85;2.63;;;15.60;99.90;;;;;;6213176;23;20095;-87
2021/10/12 10:38:29;;;;;;;7.82;2.95;;;15.70;99.90;;;;;;6213445;23;20070;-86
2021/10/12 10:41:05;;;;;;;11.05;2.35;;;15.70;99.90;;;;;;6210846;23;20017;-87
2021/10/12 10:43:54;;;;;;;9.90;2.40;;;15.70;99.90;;;;;;6212084;23;20017;-88
2021/10/12 10:46:35;;;;;;;8.10;2.58;;;15.70;99.90;;;;;;6213099;23;20028;-88
2021/10/12 10:49:10;;;;;;;9.27;2.60;;;15.70;99.90;;;;;;6214253;23;20024;-88
2021/10/12 10:51:59;;;;;;;7.32;2.22;;;15.70;99.90;;;;;;6213690;23;20016;-88
2021/10/12 10:54:39;;;;;;;7.80;2.25;;;15.70;99.90;;;;;;6212437;23;20016;-88
2021/10/12 10:57:22;;;;;;;11.38;2.30;;;15.70;99.90;;;;;;6213345;23;20024;-87
2021/10/12 11:00:11;;;;;;;6.13;2.28;;;15.70;99.90;;;;;;6213964;23;20406;-87
2021/10/12 11:02:38;;;;;;;11.43;2.13;;;15.80;99.90;;;;;;6212833;23;20478;-87
2021/10/12 11:05:06;;;;;;;12.05;2.78;;;15.90;99.90;;;;;;6213062;23;20095;-85
2021/10/12 11:07:32;;;;;;;9.15;2.13;;;15.90;99.90;;;;;;6213448;23;20013;-87
2021/10/12 11:10:00;;;;;;;9.00;2.42;;;16.00;99.90;;;;;;6187543;23;20019;-87
2021/10/12 11:12:29;;;;;;;8.73;2.40;;;16.00;99.90;;;;;;6187002;23;20013;-87
2021/10/12 11:15:07;;;;;;;8.35;2.55;;;16.10;99.90;;;;;;6213178;23;20016;-87
2021/10/12 11:17:34;;;;;;;9.93;2.40;;;16.20;99.90;;;;;;6212817;23;20486;-88
2021/10/12 11:20:14;;;;;;;8.23;2.72;;;16.20;99.90;;;;;;6187777;23;20028;-87
2021/10/12 11:22:43;;;;;;;7.15;2.47;;;16.30;99.90;;;;;;6212812;23;20020;-87
2021/10/12 11:25:11;;;;;;;6.57;1.88;;;16.30;99.90;;;;;;6212271;23;20013;-85
2021/10/12 11:27:43;;;;;;;10.10;2.35;;;16.30;99.90;;;;;;6187225;23;20013;-87
2021/10/12 11:30:12;;;;;;;6.65;1.90;;;16.30;99.90;;;;;;6186266;23;20353;-87
2021/10/12 11:32:39;;;;;;;8.48;2.10;;;16.20;99.90;;;;;;6213321;23;20035;-87
2021/10/12 11:35:08;;;;;;;12.80;2.38;;;16.20;99.90;;;;;;6212570;23;20017;-85
2021/10/12 11:37:51;;;;;;;5.47;1.70;;;16.20;99.90;;;;;;6213251;23;20024;-86
2021/10/12 11:40:22;;;;;;;12.20;2.30;;;16.20;99.90;;;;;;6212925;23;20071;-87
2021/10/12 11:42:49;;;;;;;6.95;1.92;;;16.20;99.90;;;;;;6213994;23;20016;-88
2021/10/12 11:45:16;;;;;;;7.97;2.28;;;16.30;99.90;;;;;;6212217;23;20482;-87
2021/10/12 11:47:43;;;;;;;7.78;2.08;;;16.30;99.90;;;;;;6213430;23;20031;-87
2021/10/12 11:50:12;;;;;;;9.57;2.50;;;16.30;99.90;;;;;;6212835;23;20017;-88
2021/10/12 11:52:44;;;;;;;8.32;2.72;;;16.30;99.90;;;;;;6212057;23;20035;-87
2021/10/12 11:55:13;;;;;;;8.57;2.25;;;16.30;99.90;;;;;;6212544;23;20016;-86
2021/10/12 11:57:46;;;;;;;8.50;2.50;;;16.30;99.90;;;;;;6212715;23;20817;-87
2021/10/12 12:00:15;;;;;;;9.05;2.88;;;16.40;99.90;;;;;;6186312;23;20478;-88
2021/10/12 12:02:42;;;;;;;7.68;2.20;;;16.50;99.90;;;;;;6213389;23;20475;-86
2021/10/12 12:05:11;;;;;;;7.43;1.95;;;16.50;99.90;;;;;;6211702;23;20537;-87
2021/10/12 12:07:43;;;;;;;5.97;1.92;;;16.60;99.90;;;;;;6212737;23;20012;-84
2021/10/12 12:10:11;;;;;;;7.15;2.47;;;16.50;99.90;;;;;;6212092;23;20021;-85
2021/10/12 12:12:39;;;;;;;4.78;2.20;;;16.50;99.90;;;;;;6212553;23;20012;-86
2021/10/12 12:15:06;;;;;;;6.53;2.30;;;16.50;99.90;;;;;;6212126;23;20013;-86
2021/10/12 12:17:36;;;;;;;6.50;2.20;;;16.50;99.90;;;;;;6212705;23;20297;-86
2021/10/12 12:20:09;;;;;;;5.80;2.30;;;16.50;99.90;;;;;;6187649;23;20013;-88
2021/10/12 12:22:40;;;;;;;10.35;2.90;;;16.50;99.90;;;;;;6212466;23;20016;-87
2021/10/12 12:25:17;;;;;;;6.75;2.33;;;16.50;99.90;;;;;;6210509;23;20402;-87
2021/10/12 12:27:53;;;;;;;8.32;2.42;;;16.50;99.90;;;;;;6212599;23;20021;-88
2021/10/12 12:30:34;;;;;;;6.45;2.30;;;16.60;99.90;;;;;;6211754;23;20079;-85
2021/10/12 12:33:02;;;;;;;5.68;2.17;;;16.70;99.90;;;;;;6212737;23;20024;-87
2021/10/12 12:35:45;;;;;;;7.35;3.13;;;16.70;99.90;;;;;;6185644;23;20032;-86
2021/10/12 12:38:21;;;;;;;8.20;3.13;;;16.70;99.90;;;;;;6214331;23;20517;-87
2021/10/12 12:40:51;;;;;;;9.90;2.65;;;16.70;99.90;;;;;;6214611;23;20013;-86
2021/10/12 12:43:20;;;;;;;8.52;2.63;;;16.70;99.90;;;;;;6213842;23;20032;-87
2021/10/12 12:46:07;;;;;;;6.15;2.08;;;16.80;99.90;;;;;;6188594;23;20104;-87
2021/10/12 12:48:34;;;;;;;8.18;2.15;;;16.80;99.90;;;;;;6214557;23;20490;-88
2021/10/12 12:51:06;;;;;;;5.22;2.03;;;16.80;99.90;;;;;;6188583;23;20020;-86
2021/10/12 12:53:49;;;;;;;6.97;2.17;;;16.90;99.90;;;;;;6212382;23;20013;-87
2021/10/12 12:56:19;;;;;;;9.57;2.47;;;16.90;99.90;;;;;;6186437;23;20025;-86
2021/10/12 12:58:48;;;;;;;8.73;2.20;;;16.90;99.90;;;;;;6214482;23;20475;-85
2021/10/12 13:01:17;;;;;;;6.40;2.30;;;16.90;99.90;;;;;;6213344;23;20082;-87
2021/10/12 13:03:51;;;;;;;8.57;2.20;;;16.90;99.90;;;;;;6213492;23;20021;-86
2021/10/12 13:06:18;;;;;;;6.82;2.80;;;17.00;99.90;;;;;;6212378;23;20017;-86
2021/10/12 13:08:48;;;;;;;8.27;2.80;;;17.00;99.90;;;;;;6187628;23;20347;-87
2021/10/12 13:11:26;;;;;;;9.18;2.20;;;17.00;99.90;;;;;;6186319;23;20067;-87
2021/10/12 13:13:53;;;;;;;8.73;2.63;;;17.00;99.90;;;;;;6187858;23;20043;-87
2021/10/12 13:16:20;;;;;;;7.75;2.30;;;16.90;99.90;;;;;;6213717;23;20525;-87
2021/10/12 13:18:47;;;;;;;7.82;2.60;;;16.90;99.90;;;;;;6214229;23;20024;-86
2021/10/12 13:21:14;;;;;;;7.68;2.35;;;16.90;99.90;;;;;;6187532;23;20033;-87
2021/10/12 13:23:41;;;;;;;9.07;2.80;;;16.90;99.90;;;;;;6214020;23;20059;-87
2021/10/12 13:26:08;;;;;;;7.20;2.67;;;16.90;99.90;;;;;;6186871;23;20020;-84
2021/10/12 13:28:35;;;;;;;6.93;2.55;;;16.90;99.90;;;;;;6214044;23;20032;-85
2021/10/12 13:31:02;;;;;;;7.45;2.67;;;16.90;99.90;;;;;;6213785;23;20028;-87
2021/10/12 13:33:29;;;;;;;10.88;3.08;;;17.00;99.90;;;;;;6213832;23;20012;-86
2021/10/12 13:35:56;;;;;;;7.75;2.67;;;17.00;99.90;;;;;;6213592;23;20013;-85
2021/10/12 13:38:22;;;;;;;7.38;2.50;;;17.00;99.90;;;;;;6213221;23;20016;-86
2021/10/12 13:40:49;;;;;;;8.35;2.05;;;17.00;99.90;;;;;;6214206;23;20023;-87
2021/10/12 13:43:16;;;;;;;7.95;2.60;;;17.00;99.90;;;;;;6213145;23;20024;-87
2021/10/12 13:45:43;;;;;;;6.38;2.30;;;17.00;99.90;;;;;;6213828;23;20470;-87
2021/10/12 13:48:10;;;;;;;6.80;2.55;;;17.00;99.90;;;;;;6186979;23;20040;-87
2021/10/12 13:50:38;;;;;;;13.32;2.42;;;17.00;99.90;;;;;;6214693;23;20028;-88
2021/10/12 13:53:05;;;;;;;10.35;2.45;;;17.00;99.90;;;;;;6211968;23;20012;-86
2021/10/12 13:55:32;;;;;;;11.43;2.47;;;17.00;99.90;;;;;;6213792;23;20016;-87
2021/10/12 13:58:00;;;;;;;8.55;2.45;;;17.00;99.90;;;;;;6214066;23;20021;-87
2021/10/12 14:00:28;;;;;;;7.50;2.72;;;17.00;99.90;;;;;;6213240;23;20070;-87
2021/10/12 14:02:55;;;;;;;5.88;2.63;;;16.90;99.90;;;;;;6212839;23;20016;-87
2021/10/12 14:05:22;;;;;;;7.10;2.40;;;16.90;99.90;;;;;;6213186;23;20017;-87
2021/10/12 14:07:49;;;;;;;9.68;2.88;;;16.90;99.90;;;;;;6214001;23;20021;-87
2021/10/12 14:10:16;;;;;;;10.45;2.88;;;16.90;99.90;;;;;;6186802;23;20079;-87
2021/10/12 14:12:43;;;;;;;10.43;3.08;;;16.90;99.90;;;;;;6187544;23;20016;-87
2021/10/12 14:15:12;;;;;;;9.82;2.75;;;16.90;99.90;;;;;;6185442;23;20025;-87
2021/10/12 14:17:40;;;;;;;8.38;3.03;;;17.00;99.90;;;;;;6213962;23;20028;-87
2021/10/12 14:20:15;;;;;;;8.73;3.03;;;17.10;99.90;;;;;;6212501;23;20017;-87
2021/10/12 14:22:42;;;;;;;9.18;3.10;;;17.10;99.90;;;;;;6213714;23;20477;-87
2021/10/12 14:25:09;;;;;;;12.73;3.22;;;17.10;99.90;;;;;;6186679;23;20043;-87
2021/10/12 14:27:36;;;;;;;9.63;3.03;;;17.20;99.90;;;;;;6213457;23;20448;-87
2021/10/12 14:30:04;;;;;;;7.50;3.08;;;17.20;99.90;;;;;;6212766;23;20024;-87
2021/10/12 14:32:31;;;;;;;7.82;2.90;;;17.20;99.90;;;;;;6186616;23;20031;-87
2021/10/12 14:34:58;;;;;;;9.52;3.30;;;17.30;99.90;;;;;;6213410;23;20013;-86
2021/10/12 14:37:28;;;;;;;10.50;3.35;;;17.30;99.90;;;;;;6212669;23;20021;-87
2021/10/12 14:39:57;;;;;;;13.98;3.50;;;17.20;99.90;;;;;;6213727;23;20328;-87
2021/10/12 14:42:27;;;;;;;;;;;17.30;99.90;;;;;;6213589;23;20032;-88
2021/10/12 14:44:54;;;;;;;8.25;2.85;;;17.30;99.90;;;;;;6212237;23;19919;-86
2021/10/12 14:47:21;;;;;;;8.82;3.42;;;17.30;99.90;;;;;;6212237;23;20028;-87
2021/10/12 14:49:49;;;;;;;8.75;3.22;;;17.30;99.90;;;;;;6213811;23;20027;-87
2021/10/12 14:52:15;;;;;;;7.35;3.08;;;17.40;99.90;;;;;;6212595;23;20074;-87
2021/10/12 14:54:43;;;;;;;9.70;3.35;;;17.40;99.90;;;;;;6213764;23;20071;-87
2021/10/12 14:57:10;;;;;;;6.93;3.05;;;17.40;99.90;;;;;;6186637;23;20075;-87
2021/10/12 14:59:37;;;;;;;10.60;3.55;;;17.40;99.90;;;;;;6212713;23;20395;-87
2021/10/12 15:02:05;;;;;;;10.40;3.50;;;17.40;99.90;;;;;;6210054;23;20020;-86
2021/10/12 15:04:33;;;;;;;10.40;3.13;;;17.30;99.90;;;;;;6187090;23;20020;-87
2021/10/12 15:07:00;;;;;;;11.45;3.45;;;17.30;99.90;;;;;;6186024;23;20016;-87
2021/10/12 15:09:32;;;;;;;9.88;3.15;;;17.30;99.90;;;;;;6211998;23;20020;-86
2021/10/12 15:11:59;;;;;;;10.60;2.95;;;17.20;99.90;;;;;;6212945;23;20463;-87
2021/10/12 15:14:26;;;;;;;7.65;3.00;;;17.20;99.90;;;;;;6212308;23;20078;-87
2021/10/12 15:16:53;;;;;;;10.27;3.25;;;17.20;99.90;;;;;;6186317;23;20083;-87
2021/10/12 15:19:21;;;;;;;11.25;3.28;;;17.20;99.90;;;;;;6210356;23;20017;-86
2021/10/12 15:21:48;;;;;;;13.18;3.50;;;17.10;99.90;;;;;;6212765;23;20020;-89
2021/10/12 15:24:15;;;;;;;11.50;3.08;;;17.10;99.90;;;;;;6211667;23;20092;-87
2021/10/12 15:26:42;;;;;;;9.85;3.55;;;17.00;99.90;;;;;;6212614;23;20016;-85
2021/10/12 15:29:09;;;;;;;10.02;2.83;;;16.90;99.90;;;;;;6211499;23;20454;-87
2021/10/12 15:31:37;;;;;;;10.10;3.05;;;16.90;99.90;;;;;;6211103;23;20071;-86
2021/10/12 15:34:04;;;;;;;9.57;3.05;;;16.80;99.90;;;;;;6185258;23;20012;-87
2021/10/12 15:36:32;;;;;;;8.88;2.65;;;16.70;99.90;;;;;;6186264;23;20013;-85
2021/10/12 15:39:23;;;;;;;9.15;2.65;;;16.70;99.90;;;;;;6212858;23;20075;-86
2021/10/12 15:41:53;;;;;;;11.98;2.67;;;16.70;99.90;;;;;;6210056;23;20013;-85
2021/10/12 15:44:21;;;;;;;7.47;2.45;;;16.70;99.90;;;;;;6211995;23;20728;-87
2021/10/12 15:46:49;;;;;;;9.68;2.92;;;16.80;99.90;;;;;;6185594;23;20216;-85
2021/10/12 15:49:18;;;;;;;13.10;3.22;;;16.70;99.90;;;;;;6210855;23;20088;-84
2021/10/12 15:51:45;;;;;;;;;;;16.70;99.90;;;;;;6212786;23;20021;-83
2021/10/12 15:54:12;;;;;;;7.07;2.38;;;16.60;99.90;;;;;;6185633;23;20262;-82
2021/10/12 15:56:39;;;;;;;12.88;2.90;;;16.60;99.90;;;;;;6210476;23;20501;-86
2021/10/12 15:59:07;;;;;;;8.15;2.25;;;16.60;99.90;;;;;;6211094;23;20021;-82
2021/10/12 16:01:34;;;;;;;8.52;2.00;;;16.50;99.90;;;;;;6211800;23;20024;-84
2021/10/12 16:04:07;;;;;;;9.20;2.00;;;16.50;99.90;;;;;;6210915;23;20021;-83
2021/10/12 16:06:34;;;;;;;5.80;1.95;;;16.50;99.90;;;;;;6211648;23;20021;-85
2021/10/12 16:09:01;;;;;;;6.28;1.98;;;16.50;99.90;;;;;;6212111;23;20016;-86
2021/10/12 16:11:28;;;;;;;9.50;2.10;;;16.50;99.90;;;;;;6185935;23;20096;-86
2021/10/12 16:13:55;;;;;;;8.07;2.10;;;16.50;99.90;;;;;;6215633;23;20044;-82
2021/10/12 16:22:00;;;;;;;6.50;2.08;;;16.50;99.90;;;;;;6107066;23;20450;-84
2021/10/12 16:24:31;;;;;;;6.35;1.80;;;16.40;99.90;;;;;;6121114;23;20014;-86
2021/10/12 16:27:02;;;;;;;7.03;1.95;;;16.30;99.90;;;;;;6121899;23;20022;-85
2021/10/12 16:29:31;;;;;;;9.20;2.38;;;16.40;99.90;;;;;;6119819;23;20062;-84
2021/10/12 16:32:00;;;;;;;8.43;1.85;;;16.30;99.90;;;;;;6118825;23;20025;-85
2021/10/12 16:34:29;;;;;;;7.47;1.80;;;16.30;99.90;;;;;;6119846;23;20022;-84
2021/10/12 16:37:00;;;;;;;8.43;2.45;;;16.30;99.90;;;;;;6120484;23;20061;-85
2021/10/12 16:40:01;;;;;;;8.40;2.20;;;16.20;99.90;;;;;;6071346;23;20100;-84
2021/10/12 16:42:28;;;;;;;7.85;2.05;;;16.20;99.90;;;;;;6069284;23;20022;-86
2021/10/12 16:44:55;;;;;;;8.55;2.03;;;16.00;99.90;;;;;;6121831;23;20080;-86
2021/10/12 16:47:22;;;;;;;8.52;1.90;;;16.00;99.90;;;;;;6120743;23;20018;-84
2021/10/12 16:49:49;;;;;;;7.70;1.90;;;15.90;99.90;;;;;;6121129;23;20026;-84
2021/10/12 16:52:16;;;;;;;7.85;1.90;;;15.80;99.90;;;;;;6117356;23;20022;-83
2021/10/12 16:54:43;;;;;;;9.07;2.90;;;15.80;99.90;;;;;;6120327;23;20353;-83
2021/10/12 16:57:10;;;;;;;9.02;2.58;;;15.70;99.90;;;;;;6119344;23;20465;-84
2021/10/12 16:59:37;;;;;;;11.02;2.33;;;15.70;99.90;;;;;;6195692;23;20351;-84
2021/10/12 17:02:04;;;;;;;9.00;1.88;;;15.60;99.90;;;;;;6211483;23;20084;-85
2021/10/12 17:04:31;;;;;;;9.10;2.08;;;15.50;99.90;;;;;;6212600;23;20016;-85
2021/10/12 17:06:59;;;;;;;8.00;2.20;;;15.50;99.90;;;;;;6186194;23;20016;-85
2021/10/12 17:09:27;;;;;;;12.90;2.05;;;15.40;99.90;;;;;;6212068;23;20020;-86
2021/10/12 17:11:54;;;;;;;9.35;2.05;;;15.40;99.90;;;;;;6186842;23;20094;-84
2021/10/12 17:14:21;;;;;;;7.15;1.80;;;15.30;99.90;;;;;;6210038;23;20035;-86
2021/10/12 17:16:49;;;;;;;9.60;2.22;;;15.20;99.90;;;;;;6213234;23;20043;-85
2021/10/12 17:19:19;;;;;;;10.63;2.08;;;15.20;99.90;;;;;;6209782;23;20047;-85
2021/10/12 17:21:46;;;;;;;10.45;1.98;;;15.10;99.90;;;;;;6184135;23;20017;-86
2021/10/12 17:24:14;;;;;;;8.98;2.35;;;15.00;99.90;;;;;;6210089;23;20067;-84
2021/10/12 17:26:42;;;;;;;7.20;2.10;;;14.90;99.90;;;;;;6197069;23;20059;-84
2021/10/12 17:29:10;;;;;;;9.85;2.55;;;14.80;99.90;;;;;;6209137;23;20028;-85
2021/10/12 17:31:37;;;;;;;10.82;2.70;;;14.70;99.90;;;;;;6208186;23;20443;-86
2021/10/12 17:34:05;;;;;;;12.45;2.75;;;14.70;99.90;;;;;;6189763;23;20575;-84
2021/10/12 17:36:41;;;;;;;11.93;2.45;;;14.60;99.90;;;;;;6211362;23;20028;-82
2021/10/12 17:39:11;;;;;;;13.23;2.28;;;14.50;99.90;;;;;;6209405;23;20111;-86
2021/10/12 17:41:39;;;;;;;9.18;2.45;;;14.30;99.90;;;;;;6211321;23;20024;-86
2021/10/12 17:44:16;;;;;;;10.23;2.50;;;14.30;99.90;;;;;;6184767;23;20021;-85
2021/10/12 17:46:48;;;;;;;10.95;2.58;;;14.20;99.90;;;;;;6211851;23;20008;-84
2021/10/12 17:49:17;;;;;;;8.85;2.30;;;14.10;99.90;;;;;;6210893;23;20774;-83
2021/10/12 17:51:45;;;;;;;8.57;2.05;;;14.00;99.90;;;;;;6185500;23;20032;-85
2021/10/12 17:54:17;;;;;;;13.23;2.03;;;13.90;99.90;;;;;;6210873;23;20158;-84
2021/10/12 17:56:45;;;;;;;10.27;1.98;;;13.80;99.90;;;;;;6211474;23;20083;-82
2021/10/12 17:59:16;;;;;;;10.02;2.03;;;13.70;99.90;;;;;;6193626;23;20016;-83
2021/10/12 18:01:44;;;;;;;6.40;1.95;;;13.70;99.90;;;;;;6192310;23;20033;-84
2021/10/12 18:04:12;;;;;;;8.57;1.73;;;13.60;99.90;;;;;;6180471;23;20013;-82
2021/10/12 18:06:40;;;;;;;9.45;2.33;;;13.50;99.90;;;;;;6180818;23;20020;-83
2021/10/12 18:09:08;;;;;;;9.10;1.92;;;13.50;99.90;;;;;;6153345;23;20013;-85
2021/10/12 18:11:43;;;;;;;12.50;2.13;;;13.40;99.90;;;;;;6179583;23;20028;-83
2021/10/12 18:14:12;;;;;;;9.80;2.03;;;13.30;99.90;;;;;;6180993;23;20559;-84
2021/10/12 18:16:41;;;;;;;13.88;2.33;;;13.30;99.90;;;;;;6180093;23;20052;-83
2021/10/12 18:19:10;;;;;;;9.68;2.22;;;13.20;99.90;;;;;;6181058;23;20021;-83
2021/10/12 18:21:38;;;;;;;11.95;2.17;;;13.10;99.90;;;;;;6179353;23;20068;-82
2021/10/12 18:24:07;;;;;;;6.72;2.00;;;13.10;99.90;;;;;;6180526;23;20020;-82
2021/10/12 18:26:36;;;;;;;12.30;2.00;;;13.00;99.90;;;;;;6181154;23;20017;-82
2021/10/12 18:29:10;;;;;;;;;;;12.90;99.90;;;;;;6181452;23;20522;-83
2021/10/12 18:31:38;;;;;;;10.80;2.30;;;12.80;99.90;;;;;;6180974;23;19975;-82
2021/10/12 18:34:05;;;;;;;9.43;2.05;;;12.80;99.90;;;;;;6154000;23;20025;-82
2021/10/12 18:36:33;;;;;;;10.80;1.77;;;12.70;99.90;;;;;;6181132;23;20044;-83
2021/10/12 18:39:04;;;;;;;10.50;1.98;;;12.70;99.90;;;;;;6154634;23;20079;-83
2021/10/12 18:41:32;;;;;;;9.45;2.78;;;12.60;99.90;;;;;;6179881;23;20083;-83
2021/10/12 18:43:59;;;;;;;8.77;2.33;;;12.60;99.90;;;;;;6181069;23;20484;-85
2021/10/12 18:46:26;;;;;;;10.65;2.30;;;12.50;99.90;;;;;;6179779;23;20017;-84
2021/10/12 18:48:53;;;;;;;15.85;2.70;;;12.50;99.90;;;;;;6154907;23;20403;-83
2021/10/12 18:51:21;;;;;;;11.63;2.28;;;12.40;99.90;;;;;;6180161;23;20024;-82
2021/10/12 18:53:49;;;;;;;15.68;2.22;;;12.40;99.90;;;;;;6179566;23;20021;-83
2021/10/12 18:56:17;;;;;;;13.98;2.42;;;12.40;99.90;;;;;;6180234;23;20020;-82